Terminal Aerodrome Forecast
Issued by NWS Kansas City/Pleasant Hill, MO

Home | Current Version | Previous Version | Text Only | Print | Product List | Glossary On
Versions: 1 2 3 4 5 6 7 8 9 10 11
654
FTUS43 KEAX 251733
TAFMCI
TAF
KMCI 251733Z 2518/2618 17012KT P6SM SCT040 BKN150
     FM260100 20006KT P6SM SHRA VCTS OVC045CB
      TEMPO 2601/2603 5SM -TSRA OVC030CB
     FM260300 34010KT 6SM SHRA VCTS OVC015CB
     FM260600 33010KT P6SM VCSH OVC008
     FM261000 33010KT P6SM OVC010
     FM261500 33010KT P6SM OVC020=

USA.gov is the U.S. government's official web portal to all federal, state and local government web resources and services.